This demonstration page uses our WeatherBlox Daily Observations layout. Learn more.

39.29038, -76.61219

Hourly Observations for October 12, 2015

Temp ( °F °C ) Dew Point ( °F °C ) Humidity (%) Winds ( mph kmh ) Pressure ( in mb ) Visibility ( mi km ) Precip ( " mm )
12:54 am 00:54 undefined 57 13.9 49 9.4 74 74 undefined N/A 29.91 1013 N/A 0 0
1:54 am 01:54 undefined 56 13.3 49 9.4 77 77 undefined N/A 29.9 1013 N/A 0 0
2:54 am 02:54 undefined 56 13.3 48 8.9 75 75 undefined N/A 29.9 1013 N/A 0 0
3:54 am 03:54 undefined 53 11.7 48 8.9 83 83 undefined N/A 29.9 1013 N/A 0 0
4:54 am 04:54 undefined 53 11.7 47 8.3 80 80 undefined N/A 29.89 1012 N/A 0 0
5:54 am 05:54 undefined 53 11.7 48 8.9 83 83 undefined N/A 29.9 1012 N/A 0 0
6:54 am 06:54 undefined 53 11.7 47 8.3 80 80 undefined N/A 29.9 1013 N/A 0 0
7:54 am 07:54 undefined 54 12.2 47 8.3 77 77 undefined N/A 29.9 1013 N/A 0 0
8:54 am 08:54 undefined 59 15 50 10 72 72 undefined N/A 29.9 1012 N/A 0 0
9:54 am 09:54 undefined 61 16.1 50 10 67 67 undefined N/A 29.88 1012 N/A 0 0
10:54 am 10:54 undefined 64 17.8 50 10 60 60 undefined N/A 29.87 1012 N/A 0 0
11:54 am 11:54 undefined 69 20.6 50 10 51 51 undefined N/A 29.86 1011 N/A 0 0
12:54 pm 12:54 undefined 70 21.1 53 11.7 55 55 undefined N/A 29.84 1011 N/A 0 0
1:54 pm 13:54 undefined 71 21.7 53 11.7 53 53 undefined N/A 29.82 1010 N/A 0 0
2:54 pm 14:54 undefined 72 22.2 52 11.1 50 50 undefined N/A 29.79 1009 N/A 0 0
3:54 pm 15:54 undefined 71 21.7 51 10.6 49 49 undefined N/A 29.77 1008 N/A 0 0
4:54 pm 16:54 undefined 71 21.7 52 11.1 51 51 undefined N/A 29.76 1008 N/A 0 0
5:54 pm 17:54 undefined 70 21.1 47 8.3 44 44 undefined N/A 29.75 1007 N/A 0 0
6:54 pm 18:54 undefined 68 20 48 8.9 49 49 undefined N/A 29.74 1007 N/A 0 0
7:54 pm 19:54 undefined 66 18.9 48 8.9 52 52 undefined N/A 29.75 1007 N/A 0 0
8:54 pm 20:54 undefined 64 17.8 49 9.4 58 58 undefined N/A 29.74 1007 N/A 0 0
9:54 pm 21:54 undefined 64 17.8 51 10.6 63 63 undefined N/A 29.72 1007 N/A 0 0
10:54 pm 22:54 undefined 63 17.2 52 11.1 68 68 undefined N/A 29.71 1006 N/A 0 0
11:54 pm 23:54 undefined 62 16.7 52 11.1 70 70 undefined N/A 29.69 1005 N/A 0 0

Powered by AerisWeather